Time;durP1;ratioP1;P1;durP2;ratioP2;P2;SDS_P1;SDS_P2;PMS_P1;PMS_P2;Temp;Humidity;BMP_temperature;BMP_pressure;BME280_temperature;BME280_humidity;BME280_pressure;Samples;Min_cycle;Max_cycle;Signal;HPM_P1;HPM_P2
2023/08/14 00:01:54;;;;;;;9.45;6.60;;;15.60;99.90;;;;;;5077023;28;20028;-70
2023/08/14 00:04:20;;;;;;;17.48;6.60;;;15.60;99.90;;;;;;5077060;28;20056;-70
2023/08/14 00:06:46;;;;;;;11.75;6.53;;;15.60;99.90;;;;;;5077129;28;20043;-70
2023/08/14 00:09:11;;;;;;;12.27;6.78;;;15.60;99.90;;;;;;5077044;28;20036;-70
2023/08/14 00:11:37;;;;;;;7.47;6.13;;;15.60;99.90;;;;;;5076256;28;20549;-70
2023/08/14 00:14:03;;;;;;;9.32;6.78;;;15.70;99.90;;;;;;5076428;28;20100;-70
2023/08/14 00:16:29;;;;;;;11.05;6.75;;;15.60;99.90;;;;;;5076863;28;20020;-70
2023/08/14 00:18:54;;;;;;;10.43;6.57;;;15.50;99.90;;;;;;5076173;28;20032;-70
2023/08/14 00:21:20;;;;;;;12.90;7.32;;;15.60;99.90;;;;;;5076288;28;20035;-70
2023/08/14 00:23:45;;;;;;;10.45;6.85;;;15.60;99.90;;;;;;5076291;28;20386;-70
2023/08/14 00:26:12;;;;;;;16.02;7.97;;;15.50;99.90;;;;;;5076719;28;20111;-70
2023/08/14 00:28:38;;;;;;;16.30;7.50;;;15.50;99.90;;;;;;5076725;28;20024;-70
2023/08/14 00:31:04;;;;;;;12.40;7.88;;;15.50;99.90;;;;;;5076252;28;20031;-70
2023/08/14 00:33:29;;;;;;;11.52;7.57;;;15.40;99.90;;;;;;5076366;28;20474;-70
2023/08/14 00:35:55;;;;;;;9.63;7.05;;;15.40;99.90;;;;;;5076561;28;20029;-70
2023/08/14 00:38:21;;;;;;;8.98;6.47;;;15.50;99.90;;;;;;5075920;28;20111;-70
2023/08/14 00:40:46;;;;;;;9.65;6.80;;;15.70;99.90;;;;;;5076245;28;20059;-70
2023/08/14 00:43:12;;;;;;;9.07;7.03;;;15.40;99.90;;;;;;5076341;28;20029;-70
2023/08/14 00:45:38;;;;;;;9.55;7.43;;;15.40;99.90;;;;;;5076413;28;20471;-70
2023/08/14 00:48:04;;;;;;;9.85;7.43;;;15.40;99.90;;;;;;5076005;28;20085;-70
2023/08/14 00:50:30;;;;;;;11.70;7.28;;;15.40;99.90;;;;;;5076283;28;20028;-70
2023/08/14 00:52:59;;;;;;;9.05;6.95;;;15.30;99.90;;;;;;5074962;28;20052;-70
2023/08/14 00:55:26;;;;;;;12.00;7.03;;;15.30;99.90;;;;;;5075829;28;20032;-70
2023/08/14 00:57:53;;;;;;;10.35;7.43;;;15.10;99.90;;;;;;5076160;28;20043;-70
2023/08/14 01:00:18;;;;;;;10.52;7.15;;;15.30;99.90;;;;;;5075791;28;20051;-70
2023/08/14 01:02:46;;;;;;;10.30;7.40;;;15.20;99.90;;;;;;5076006;28;20520;-70
2023/08/14 01:05:13;;;;;;;10.23;7.13;;;;;;;;;;5075462;28;20024;-70
2023/08/14 01:07:39;;;;;;;10.73;6.68;;;15.30;99.90;;;;;;5076018;28;20024;-71
2023/08/14 01:10:08;;;;;;;14.70;7.80;;;15.30;99.90;;;;;;5075835;28;20370;-70
2023/08/14 01:12:54;;;;;;;8.73;6.40;;;;;;;;;;5075620;28;20028;-70
2023/08/14 01:15:30;;;;;;;13.55;7.32;;;15.20;99.90;;;;;;5074513;28;20107;-70
2023/08/14 01:17:59;;;;;;;9.55;6.47;;;15.20;99.90;;;;;;5075764;28;20024;-70
2023/08/14 01:20:26;;;;;;;8.13;6.78;;;;;;;;;;5075577;28;20020;-70
2023/08/14 01:23:20;;;;;;;13.15;8.18;;;15.20;99.90;;;;;;5075596;28;20029;-70
2023/08/14 01:25:47;;;;;;;10.95;6.90;;;15.10;99.90;;;;;;5074773;28;20034;-70
2023/08/14 01:28:13;;;;;;;11.90;7.68;;;15.20;99.90;;;;;;5074831;28;20523;-70
2023/08/14 01:30:39;;;;;;;12.43;7.75;;;15.00;99.90;;;;;;5075179;28;20466;-70
2023/08/14 01:33:04;;;;;;;10.63;7.85;;;14.90;99.90;;;;;;5074909;28;20031;-70
2023/08/14 01:35:38;;;;;;;7.90;7.10;;;15.00;99.90;;;;;;5075389;28;20028;-70
2023/08/14 01:38:14;;;;;;;13.05;7.70;;;15.00;99.90;;;;;;5075309;28;20028;-70
2023/08/14 01:41:19;;;;;;;12.73;7.40;;;14.90;99.90;;;;;;5074766;28;20055;-70
2023/08/14 01:43:48;;;;;;;11.32;7.38;;;14.90;99.90;;;;;;5074508;28;20055;-70
2023/08/14 01:46:16;;;;;;;8.88;7.00;;;14.90;99.90;;;;;;5074842;28;20081;-70
2023/08/14 01:48:45;;;;;;;9.40;7.40;;;14.90;99.90;;;;;;5074597;28;20021;-71
2023/08/14 01:51:11;;;;;;;11.02;7.65;;;14.80;99.90;;;;;;5074123;28;20517;-70
2023/08/14 01:53:37;;;;;;;11.13;6.95;;;14.80;99.90;;;;;;5075039;28;20025;-70
2023/08/14 01:56:02;;;;;;;11.27;7.22;;;14.80;99.90;;;;;;5074972;28;20393;-70
2023/08/14 01:58:29;;;;;;;11.00;7.20;;;14.90;99.90;;;;;;5074947;28;20028;-70
2023/08/14 02:00:55;;;;;;;9.95;7.60;;;14.90;99.90;;;;;;5074905;28;20426;-70
2023/08/14 02:03:21;;;;;;;11.82;8.75;;;14.90;99.90;;;;;;5074097;28;20067;-70
2023/08/14 02:05:46;;;;;;;10.70;8.13;;;14.90;99.90;;;;;;5074319;28;20070;-70
2023/08/14 02:08:13;;;;;;;13.30;8.23;;;14.90;99.90;;;;;;5074247;28;20037;-70
2023/08/14 02:10:38;;;;;;;12.43;7.95;;;14.90;99.90;;;;;;5074263;28;20351;-70
2023/08/14 02:13:04;;;;;;;9.38;7.45;;;14.90;99.90;;;;;;5074409;28;20032;-70
2023/08/14 02:15:30;;;;;;;17.67;8.98;;;14.90;99.90;;;;;;5074211;28;20496;-70
2023/08/14 02:17:57;;;;;;;12.15;8.27;;;14.90;99.90;;;;;;5074386;28;20481;-70
2023/08/14 02:20:24;;;;;;;8.43;7.50;;;14.90;99.90;;;;;;5074379;28;20021;-70
2023/08/14 02:22:49;;;;;;;10.32;7.95;;;14.90;99.90;;;;;;5073445;28;20024;-70
2023/08/14 02:25:15;;;;;;;10.90;7.80;;;15.00;99.90;;;;;;5074537;28;20020;-70
2023/08/14 02:27:41;;;;;;;8.70;7.60;;;14.90;99.90;;;;;;5074235;28;20378;-70
2023/08/14 02:30:07;;;;;;;8.40;6.50;;;14.90;99.90;;;;;;5073978;28;20060;-70
2023/08/14 02:32:33;;;;;;;10.20;7.32;;;14.90;99.90;;;;;;5073980;28;20028;-70
2023/08/14 02:34:58;;;;;;;11.65;6.90;;;14.80;99.90;;;;;;5073886;28;20031;-70
2023/08/14 02:37:24;;;;;;;9.32;7.07;;;14.80;99.90;;;;;;5074415;28;20024;-70
2023/08/14 02:39:50;;;;;;;10.15;7.13;;;14.80;99.90;;;;;;5073814;28;20036;-70
2023/08/14 02:42:16;;;;;;;9.00;6.82;;;14.80;99.90;;;;;;5074287;28;20112;-70
2023/08/14 02:44:42;;;;;;;12.20;8.23;;;14.80;99.90;;;;;;5074258;28;20454;-70
2023/08/14 02:47:08;;;;;;;11.88;7.18;;;14.70;99.90;;;;;;5073581;28;20020;-70
2023/08/14 02:49:33;;;;;;;10.00;7.35;;;14.70;99.90;;;;;;5073994;28;20033;-70
2023/08/14 02:51:59;;;;;;;11.15;7.10;;;14.70;99.90;;;;;;5073062;28;20426;-70
2023/08/14 02:54:25;;;;;;;11.65;7.97;;;14.60;99.90;;;;;;5073869;28;20032;-70
2023/08/14 02:56:51;;;;;;;15.35;8.70;;;14.60;99.90;;;;;;5073445;28;20020;-70
2023/08/14 02:59:17;;;;;;;11.63;8.82;;;14.60;99.90;;;;;;5073814;28;20025;-70
2023/08/14 03:01:43;;;;;;;10.13;7.18;;;14.60;99.90;;;;;;5074131;28;20036;-70
2023/08/14 03:04:08;;;;;;;10.30;7.20;;;14.60;99.90;;;;;;5073969;28;20060;-70
2023/08/14 03:06:34;;;;;;;11.02;7.95;;;14.60;99.90;;;;;;5073783;28;20028;-70
2023/08/14 03:09:00;;;;;;;9.52;7.60;;;14.60;99.90;;;;;;5073506;28;20035;-70
2023/08/14 03:11:26;;;;;;;10.20;7.35;;;14.50;99.90;;;;;;5073988;28;20085;-70
2023/08/14 03:13:52;;;;;;;9.80;7.57;;;14.50;99.90;;;;;;5073273;28;20029;-70
2023/08/14 03:16:17;;;;;;;9.48;6.95;;;14.50;99.90;;;;;;5073744;28;20428;-70
2023/08/14 03:18:43;;;;;;;8.57;7.00;;;14.50;99.90;;;;;;5073240;28;20112;-70
2023/08/14 03:21:09;;;;;;;10.05;7.60;;;14.40;99.90;;;;;;5073064;28;20021;-70
2023/08/14 03:23:35;;;;;;;9.98;7.68;;;14.40;99.90;;;;;;5073373;28;20078;-70
2023/08/14 03:26:01;;;;;;;11.32;7.60;;;14.40;99.90;;;;;;5073718;28;20020;-70
2023/08/14 03:28:27;;;;;;;10.52;7.55;;;14.40;99.90;;;;;;5073655;28;20048;-70
2023/08/14 03:30:53;;;;;;;13.20;9.73;;;14.30;99.90;;;;;;5073853;28;20063;-70
2023/08/14 03:33:18;;;;;;;9.18;7.68;;;14.30;99.90;;;;;;5073254;28;20082;-70
2023/08/14 03:35:44;;;;;;;12.25;8.93;;;14.20;99.90;;;;;;5077475;28;20025;-70
2023/08/14 03:38:10;;;;;;;11.63;8.43;;;14.20;99.90;;;;;;5077430;28;20469;-70
2023/08/14 03:40:35;;;;;;;12.95;8.82;;;14.20;99.90;;;;;;5077086;28;20024;-70
2023/08/14 03:43:02;;;;;;;10.45;7.40;;;14.20;99.90;;;;;;5077281;28;20032;-70
2023/08/14 03:45:28;;;;;;;9.07;7.70;;;14.20;99.90;;;;;;5077158;28;20074;-70
2023/08/14 03:47:53;;;;;;;12.73;8.70;;;14.20;99.90;;;;;;5077463;28;20408;-70
2023/08/14 03:50:19;;;;;;;13.95;7.68;;;14.20;99.90;;;;;;5076863;28;20488;-70
2023/08/14 03:52:45;;;;;;;11.02;7.53;;;14.20;99.90;;;;;;5076107;28;20040;-70
2023/08/14 03:55:10;;;;;;;11.07;7.00;;;14.10;99.90;;;;;;5076781;28;20043;-70
2023/08/14 03:57:36;;;;;;;9.75;7.50;;;14.10;99.90;;;;;;5077294;28;20028;-70
2023/08/14 04:00:02;;;;;;;11.00;7.45;;;14.00;99.90;;;;;;5077120;28;20028;-70
2023/08/14 04:02:28;;;;;;;11.10;7.88;;;14.00;99.90;;;;;;5076941;28;20074;-70
2023/08/14 04:04:54;;;;;;;14.73;8.15;;;14.00;99.90;;;;;;5076894;28;20032;-70
2023/08/14 04:07:20;;;;;;;9.32;7.40;;;14.00;99.90;;;;;;5076382;28;20043;-71
2023/08/14 04:09:45;;;;;;;10.02;6.93;;;14.00;99.90;;;;;;5076670;28;20122;-70
2023/08/14 04:12:11;;;;;;;10.82;8.02;;;14.00;99.90;;;;;;5076575;28;20048;-70
2023/08/14 04:14:37;;;;;;;8.85;7.60;;;13.90;99.90;;;;;;5076023;28;20025;-70
2023/08/14 04:17:03;;;;;;;8.60;7.00;;;13.90;99.90;;;;;;5076975;28;20033;-70
2023/08/14 04:19:28;;;;;;;12.63;8.55;;;13.90;99.90;;;;;;5076952;28;20522;-70
2023/08/14 04:21:54;;;;;;;13.60;9.02;;;14.00;99.90;;;;;;5075667;28;20094;-70
2023/08/14 04:24:20;;;;;;;11.90;8.80;;;14.10;99.90;;;;;;5076329;28;20056;-70
2023/08/14 04:26:45;;;;;;;9.77;7.40;;;14.10;99.90;;;;;;5076231;28;20021;-70
2023/08/14 04:29:11;;;;;;;12.80;8.45;;;14.10;99.90;;;;;;5075876;28;20028;-70
2023/08/14 04:31:38;;;;;;;10.05;7.60;;;14.00;99.90;;;;;;5076612;28;20039;-70
2023/08/14 04:34:05;;;;;;;11.43;7.93;;;14.00;99.90;;;;;;5076567;28;20025;-70
2023/08/14 04:36:32;;;;;;;10.25;8.43;;;14.10;99.90;;;;;;5076264;28;20090;-70
2023/08/14 04:38:58;;;;;;;11.07;7.82;;;14.10;99.90;;;;;;5076014;28;20045;-70
2023/08/14 04:41:24;;;;;;;10.10;7.57;;;14.20;99.90;;;;;;5076489;28;20399;-70
2023/08/14 04:43:50;;;;;;;11.10;8.02;;;14.30;99.90;;;;;;5076382;28;20466;-70
2023/08/14 04:46:30;;;;;;;10.50;7.45;;;14.30;99.90;;;;;;5075510;28;20051;-70
2023/08/14 04:48:57;;;;;;;9.73;7.22;;;14.30;99.90;;;;;;5076026;28;20031;-70
2023/08/14 04:51:23;;;;;;;11.50;7.93;;;14.40;99.90;;;;;;5075376;28;20074;-70
2023/08/14 04:53:48;;;;;;;16.27;10.48;;;14.40;99.90;;;;;;5076201;28;20025;-70
2023/08/14 04:56:14;;;;;;;11.52;8.73;;;14.50;99.90;;;;;;5076172;28;20032;-70
2023/08/14 04:58:39;;;;;;;10.38;7.13;;;14.60;99.90;;;;;;5075552;28;20111;-70
2023/08/14 05:01:05;;;;;;;9.70;7.03;;;14.70;99.90;;;;;;5075857;28;20485;-70
2023/08/14 05:03:31;;;;;;;10.85;8.45;;;14.70;99.90;;;;;;5076017;28;20033;-70
2023/08/14 05:05:56;;;;;;;11.23;8.38;;;14.80;99.90;;;;;;5075448;28;20029;-70
2023/08/14 05:08:22;;;;;;;13.85;8.23;;;14.90;99.90;;;;;;5075993;28;20056;-70
2023/08/14 05:10:51;;;;;;;9.48;7.40;;;15.10;99.90;;;;;;5075926;28;20028;-70
2023/08/14 05:13:19;;;;;;;12.50;8.77;;;15.20;99.90;;;;;;5075615;28;20488;-70
2023/08/14 05:15:48;;;;;;;14.82;8.40;;;15.30;99.90;;;;;;5075818;28;20027;-70
2023/08/14 05:18:14;;;;;;;16.13;9.55;;;15.30;99.90;;;;;;5075520;28;20478;-70
2023/08/14 05:20:43;;;;;;;15.13;8.55;;;15.40;99.90;;;;;;5075422;28;20033;-70
2023/08/14 05:23:10;;;;;;;11.27;8.40;;;15.40;99.90;;;;;;5075647;28;20020;-70
2023/08/14 05:25:35;;;;;;;12.65;7.93;;;15.40;99.90;;;;;;5074464;28;20063;-70
2023/08/14 05:28:01;;;;;;;11.00;8.38;;;15.60;99.90;;;;;;5075339;28;20052;-70
2023/08/14 05:30:27;;;;;;;11.48;8.27;;;15.70;99.90;;;;;;5074733;28;20028;-70
2023/08/14 05:32:52;;;;;;;12.45;8.50;;;15.80;99.90;;;;;;5075022;28;20032;-70
2023/08/14 05:35:23;;;;;;;14.73;7.82;;;16.00;99.90;;;;;;5075096;28;20369;-70
2023/08/14 05:37:52;;;;;;;12.30;7.68;;;16.20;99.90;;;;;;5074820;28;20017;-70
2023/08/14 05:40:19;;;;;;;14.80;8.80;;;16.30;99.90;;;;;;5075016;28;20020;-70
2023/08/14 05:43:01;;;;;;;13.27;8.13;;;16.50;99.90;;;;;;5074416;28;20063;-70
2023/08/14 05:45:27;;;;;;;16.15;9.30;;;16.80;99.90;;;;;;5074785;28;20036;-70
2023/08/14 05:47:52;;;;;;;14.07;8.07;;;17.00;99.90;;;;;;5075031;28;20489;-70
2023/08/14 05:50:20;;;;;;;14.00;8.18;;;17.20;99.90;;;;;;5074858;28;20032;-71
2023/08/14 05:52:46;;;;;;;10.50;5.80;;;17.70;99.90;;;;;;5073620;28;20048;-71
2023/08/14 05:55:12;;;;;;;10.45;6.00;;;19.30;99.90;;;;;;5074491;28;20474;-71
2023/08/14 05:57:38;;;;;;;8.35;4.85;;;20.60;99.90;;;;;;5074248;28;20461;-71
2023/08/14 06:00:04;;;;;;;8.43;5.32;;;21.80;55.80;;;;;;5073019;28;20340;-71
2023/08/14 06:02:30;;;;;;;14.07;5.50;;;22.50;1.00;;;;;;5059440;28;20060;-71
2023/08/14 06:04:56;;;;;;;7.45;4.65;;;22.80;1.00;;;;;;5070873;28;20511;-72
2023/08/14 06:07:21;;;;;;;11.05;4.80;;;24.00;99.90;;;;;;5072318;28;20024;-72
2023/08/14 06:09:47;;;;;;;12.40;5.40;;;24.10;75.70;;;;;;5073353;28;20040;-69
2023/08/14 06:12:13;;;;;;;12.02;5.60;;;24.20;99.90;;;;;;5071598;28;20056;-69
2023/08/14 06:14:38;;;;;;;8.48;4.82;;;24.40;99.90;;;;;;5073196;28;20028;-69
2023/08/14 06:17:04;;;;;;;10.38;4.80;;;24.70;1.00;;;;;;5061265;28;20041;-69
2023/08/14 06:19:29;;;;;;;8.40;4.45;;;24.80;99.90;;;;;;5063128;28;20032;-69
2023/08/14 06:21:55;;;;;;;9.00;5.40;;;24.60;99.90;;;;;;5073208;28;20052;-70
2023/08/14 06:24:22;;;;;;;9.40;5.05;;;24.50;37.30;;;;;;5073371;28;20439;-69
2023/08/14 06:26:48;;;;;;;8.38;5.80;;;24.70;99.90;;;;;;5072631;28;20074;-69
2023/08/14 06:29:13;;;;;;;8.38;5.47;;;24.70;1.00;;;;;;5073040;28;20432;-69
2023/08/14 06:31:39;;;;;;;11.50;5.18;;;24.20;99.90;;;;;;5072486;28;20039;-69
2023/08/14 06:34:06;;;;;;;10.95;5.50;;;24.50;98.10;;;;;;5072968;28;20035;-69
2023/08/14 06:36:31;;;;;;;7.90;5.72;;;25.10;99.90;;;;;;5070437;28;20035;-69
2023/08/14 06:38:57;;;;;;;9.70;5.32;;;25.20;99.90;;;;;;5072432;28;20024;-69
2023/08/14 06:41:23;;;;;;;12.05;5.30;;;25.10;1.00;;;;;;5070801;28;20470;-69
2023/08/14 06:43:51;;;;;;;11.07;5.20;;;24.70;90.20;;;;;;5072157;28;20114;-69
2023/08/14 06:46:17;;;;;;;11.38;5.30;;;24.10;1.00;;;;;;5069037;28;20026;-69
2023/08/14 06:48:42;;;;;;;10.13;5.60;;;23.80;1.00;;;;;;5073389;28;20032;-68
2023/08/14 06:51:08;;;;;;;9.35;5.32;;;23.30;99.90;;;;;;5067959;28;20044;-65
2023/08/14 06:53:34;;;;;;;8.38;4.88;;;23.30;99.90;;;;;;5070770;28;20033;-65
2023/08/14 06:55:59;;;;;;;8.13;5.55;;;23.60;99.90;;;;;;5068574;28;20507;-68
2023/08/14 06:58:25;;;;;;;8.93;5.50;;;23.90;9.00;;;;;;5066195;28;20027;-65
2023/08/14 07:00:50;;;;;;;13.98;5.00;;;24.30;16.80;;;;;;5068957;28;20028;-66
2023/08/14 07:03:16;;;;;;;14.48;5.05;;;24.90;1.00;;;;;;5069743;28;20024;-65
2023/08/14 07:05:42;;;;;;;11.63;5.00;;;24.90;1.00;;;;;;5071577;28;20021;-65
2023/08/14 07:08:07;;;;;;;9.30;5.20;;;25.90;99.90;;;;;;5072132;28;20064;-65
2023/08/14 07:10:33;;;;;;;8.05;4.97;;;26.10;99.90;;;;;;5072131;28;20029;-66
2023/08/14 07:12:59;;;;;;;8.25;4.80;;;25.50;99.90;;;;;;5072018;28;20060;-65
2023/08/14 07:15:26;;;;;;;9.30;5.38;;;24.90;1.00;;;;;;5073919;28;20037;-66
2023/08/14 07:17:52;;;;;;;10.65;5.10;;;24.60;7.90;;;;;;5070817;28;20033;-65
2023/08/14 07:20:17;;;;;;;8.82;5.18;;;24.60;41.40;;;;;;5065172;28;20032;-67
2023/08/14 07:22:43;;;;;;;12.73;5.18;;;24.60;99.90;;;;;;5072115;28;20104;-66
2023/08/14 07:25:09;;;;;;;10.48;5.50;;;24.40;99.90;;;;;;5076492;28;20057;-65
2023/08/14 07:27:34;;;;;;;10.90;5.35;;;25.40;99.90;;;;;;5076165;28;20401;-65
2023/08/14 07:30:00;;;;;;;9.32;4.90;;;25.90;99.90;;;;;;5072908;28;20047;-67
2023/08/14 07:32:26;;;;;;;8.95;4.88;;;26.50;54.80;;;;;;5075005;28;20024;-64
2023/08/14 07:34:51;;;;;;;10.75;5.60;;;26.60;99.90;;;;;;5074729;28;20111;-65
2023/08/14 07:37:17;;;;;;;13.93;5.03;;;26.50;1.00;;;;;;5077808;28;20029;-65
2023/08/14 07:39:42;;;;;;;15.32;5.88;;;26.40;99.90;;;;;;5068140;28;20021;-65
2023/08/14 07:42:08;;;;;;;9.30;4.82;;;25.40;1.00;;;;;;5079189;28;20035;-65
2023/08/14 07:44:33;;;;;;;10.25;5.38;;;25.50;99.90;;;;;;5075632;28;20025;-65
2023/08/14 07:46:59;;;;;;;12.00;4.90;;;25.80;99.90;;;;;;5078248;28;20044;-65
2023/08/14 07:49:25;;;;;;;12.80;4.93;;;26.00;99.90;;;;;;5074479;28;20035;-65
2023/08/14 07:51:50;;;;;;;8.70;4.78;;;25.90;99.90;;;;;;5078564;28;20110;-65
2023/08/14 07:54:16;;;;;;;8.38;4.97;;;25.30;99.90;;;;;;5074329;28;20040;-65
2023/08/14 07:56:42;;;;;;;8.98;4.45;;;25.40;1.00;;;;;;5075616;28;20016;-65
2023/08/14 07:59:07;;;;;;;10.45;4.80;;;25.60;1.00;;;;;;5075022;28;20086;-65
2023/08/14 08:01:33;;;;;;;9.70;4.60;;;25.00;1.00;;;;;;5070650;28;20049;-65
2023/08/14 08:03:59;;;;;;;11.07;4.20;;;25.00;1.00;;;;;;5068816;28;20166;-67
2023/08/14 08:06:25;;;;;;;13.43;4.65;;;25.40;69.40;;;;;;5073725;28;20063;-65
2023/08/14 08:08:51;;;;;;;11.98;5.00;;;25.50;1.00;;;;;;5076670;28;20087;-69
2023/08/14 08:11:16;;;;;;;11.10;4.38;;;25.50;1.00;;;;;;5077525;28;20134;-65
2023/08/14 08:13:42;;;;;;;11.38;4.50;;;25.10;84.30;;;;;;5075564;28;20081;-66
2023/08/14 08:16:08;;;;;;;11.32;4.90;;;25.20;99.90;;;;;;5076942;28;20035;-65
2023/08/14 08:18:34;;;;;;;12.25;4.80;;;25.00;1.00;;;;;;5068939;28;20029;-66
2023/08/14 08:21:00;;;;;;;8.95;4.03;;;24.60;99.90;;;;;;5073196;28;20043;-66
2023/08/14 08:23:26;;;;;;;9.68;4.43;;;24.50;99.90;;;;;;5073426;28;20379;-66
2023/08/14 08:25:51;;;;;;;8.75;3.88;;;24.60;99.90;;;;;;5075762;28;20040;-65
2023/08/14 08:28:17;;;;;;;11.00;4.10;;;25.00;1.00;;;;;;5074252;28;20032;-66
2023/08/14 08:30:42;;;;;;;9.18;4.00;;;25.40;99.90;;;;;;5070404;28;20132;-66
2023/08/14 08:33:08;;;;;;;9.45;4.32;;;25.70;87.30;;;;;;5060513;28;20063;-67
2023/08/14 08:35:34;;;;;;;10.07;4.13;;;25.80;30.50;;;;;;5073834;28;20035;-65
2023/08/14 08:37:59;;;;;;;7.75;3.67;;;25.60;1.00;;;;;;5074778;28;20036;-66
2023/08/14 08:40:26;;;;;;;9.88;3.92;;;25.70;99.90;;;;;;5071924;28;20021;-66
2023/08/14 08:42:51;;;;;;;12.88;4.32;;;25.60;99.90;;;;;;5063073;28;20029;-67
2023/08/14 08:45:18;;;;;;;10.27;4.22;;;25.50;1.00;;;;;;5072822;28;20044;-66
2023/08/14 08:47:48;;;;;;;10.88;4.20;;;25.50;99.90;;;;;;5076908;28;20082;-66
2023/08/14 08:50:14;;;;;;;8.77;4.28;;;25.50;99.90;;;;;;5074165;28;20543;-66
2023/08/14 08:52:40;;;;;;;9.88;4.78;;;25.70;1.00;;;;;;5071888;28;20045;-66
2023/08/14 08:55:07;;;;;;;9.25;3.95;;;26.20;99.90;;;;;;5061430;28;20518;-68
2023/08/14 08:57:35;;;;;;;10.40;4.05;;;27.80;1.00;;;;;;5069293;28;20039;-66
2023/08/14 09:00:02;;;;;;;9.30;4.03;;;28.50;99.90;;;;;;5067606;28;20123;-68
2023/08/14 09:02:28;;;;;;;10.77;4.28;;;28.70;99.90;;;;;;5073627;28;21914;-66
2023/08/14 09:04:54;;;;;;;7.47;3.65;;;29.30;99.90;;;;;;5074071;28;20068;-66
2023/08/14 09:07:20;;;;;;;9.18;3.72;;;29.20;1.00;;;;;;5073815;28;20486;-66
2023/08/14 09:09:45;;;;;;;10.32;3.67;;;29.30;1.00;;;;;;5087230;28;20040;-66
2023/08/14 09:12:12;;;;;;;8.18;3.97;;;28.60;99.90;;;;;;5072945;28;20032;-66
2023/08/14 09:15:02;;;;;;;9.07;3.03;;;28.70;90.40;;;;;;5071981;28;20029;-66
2023/08/14 09:17:28;;;;;;;7.72;3.00;;;29.60;99.90;;;;;;5076401;28;20113;-66
2023/08/14 09:19:54;;;;;;;5.38;2.97;;;29.60;99.90;;;;;;5073271;28;20083;-66
2023/08/14 09:22:19;;;;;;;6.93;2.97;;;29.10;99.90;;;;;;5058252;28;20482;-66
2023/08/14 09:24:48;;;;;;;6.30;2.65;;;30.50;1.80;;;;;;5065473;28;20115;-65
2023/08/14 09:27:13;;;;;;;5.15;2.80;;;29.80;59.80;;;;;;5074548;28;20033;-66
2023/08/14 09:29:39;;;;;;;9.30;3.05;;;29.70;1.00;;;;;;5070632;28;20093;-67
2023/08/14 09:32:05;;;;;;;10.57;2.85;;;30.40;1.00;;;;;;5077932;28;20485;-66
2023/08/14 09:34:31;;;;;;;7.85;2.88;;;31.00;99.90;;;;;;5077586;28;20029;-68
2023/08/14 09:36:58;;;;;;;7.45;3.03;;;30.30;97.30;;;;;;5073788;28;20035;-66
2023/08/14 09:39:24;;;;;;;6.18;2.45;;;30.70;99.90;;;;;;5069876;28;20024;-66
2023/08/14 09:41:49;;;;;;;5.75;2.67;;;31.50;1.00;;;;;;5073911;28;20036;-66
2023/08/14 09:44:19;;;;;;;10.02;3.15;;;31.20;1.00;;;;;;5073725;28;20025;-66
2023/08/14 09:46:45;;;;;;;7.90;2.92;;;31.20;25.70;;;;;;5066277;28;20116;-67
2023/08/14 09:49:11;;;;;;;7.57;2.97;;;30.90;12.30;;;;;;5068264;28;20119;-67
2023/08/14 09:51:39;;;;;;;10.07;3.25;;;31.20;10.00;;;;;;5076470;28;20047;-68
2023/08/14 09:54:09;;;;;;;9.07;2.95;;;31.10;1.00;;;;;;5072946;28;20029;-66
2023/08/14 09:56:34;;;;;;;4.40;2.40;;;30.70;1.00;;;;;;5066808;28;20492;-66
2023/08/14 09:59:00;;;;;;;7.55;2.72;;;30.30;6.10;;;;;;5072850;28;20025;-68
2023/08/14 10:01:27;;;;;;;9.30;2.80;;;30.40;1.00;;;;;;5074942;28;20517;-67
2023/08/14 10:03:54;;;;;;;7.05;2.50;;;30.80;1.00;;;;;;5072897;28;20029;-67
2023/08/14 10:06:24;;;;;;;7.15;2.67;;;31.40;1.00;;;;;;5065457;28;20066;-67
2023/08/14 10:08:55;;;;;;;3.88;2.42;;;31.50;1.00;;;;;;5072823;28;20546;-67
2023/08/14 10:11:25;;;;;;;6.95;2.40;;;31.50;1.00;;;;;;5073790;28;20032;-67
2023/08/14 10:13:54;;;;;;;7.55;2.70;;;32.40;1.00;;;;;;5072345;28;20036;-67
2023/08/14 10:16:23;;;;;;;5.95;3.22;;;32.30;1.00;;;;;;5061885;28;20257;-67
2023/08/14 10:18:53;;;;;;;7.28;2.60;;;32.70;10.40;;;;;;5072570;28;20056;-67
2023/08/14 10:21:20;;;;;;;6.95;2.95;;;32.00;1.00;;;;;;5073494;28;20021;-67
2023/08/14 10:23:47;;;;;;;8.00;3.13;;;31.80;1.00;;;;;;5068327;28;20511;-67
2023/08/14 10:26:14;;;;;;;7.75;2.85;;;30.70;1.00;;;;;;5069204;28;20611;-67
2023/08/14 10:28:40;;;;;;;6.47;2.50;;;30.70;1.00;;;;;;5059300;28;20439;-66
2023/08/14 10:31:09;;;;;;;6.05;2.75;;;31.10;1.00;;;;;;5069082;28;20029;-67
2023/08/14 10:33:35;;;;;;;7.88;2.80;;;30.60;99.90;;;;;;5070342;28;20086;-66
2023/08/14 10:36:01;;;;;;;6.90;2.90;;;30.40;1.00;;;;;;5062010;28;20402;-66
2023/08/14 10:38:46;;;;;;;8.98;3.03;;;30.20;1.00;;;;;;5071891;28;20025;-66
2023/08/14 10:41:14;;;;;;;5.68;3.05;;;30.50;26.00;;;;;;5071357;28;20052;-66
2023/08/14 10:43:40;;;;;;;8.35;2.30;;;31.40;73.30;;;;;;5072010;28;20143;-67
2023/08/14 10:46:08;;;;;;;7.35;2.63;;;30.90;99.90;;;;;;5077379;28;20112;-67
2023/08/14 10:48:36;;;;;;;4.68;2.38;;;31.30;99.90;;;;;;5072163;28;20102;-67
2023/08/14 10:51:02;;;;;;;7.93;2.78;;;30.60;81.40;;;;;;5071623;28;20048;-66
2023/08/14 10:53:30;;;;;;;6.70;3.05;;;29.80;99.90;;;;;;5073140;28;20402;-66
2023/08/14 10:55:57;;;;;;;6.07;2.33;;;30.30;99.90;;;;;;5078153;28;20420;-66
2023/08/14 10:58:35;;;;;;;6.82;2.83;;;30.30;99.90;;;;;;5071777;28;20490;-66
2023/08/14 11:01:09;;;;;;;9.30;3.10;;;30.60;99.90;;;;;;5072614;28;20031;-66
2023/08/14 11:04:04;;;;;;;8.18;3.00;;;30.50;99.90;;;;;;5071689;28;20028;-66
2023/08/14 11:07:01;;;;;;;6.93;2.97;;;30.20;99.90;;;;;;5072146;28;20116;-66
2023/08/14 11:09:31;;;;;;;7.40;3.05;;;30.00;99.90;;;;;;5058089;28;20500;-66
2023/08/14 11:12:02;;;;;;;8.20;3.17;;;30.10;99.90;;;;;;5072460;28;20064;-70
2023/08/14 11:14:27;;;;;;;5.18;2.70;;;30.20;99.90;;;;;;5069851;28;20020;-67
2023/08/14 11:16:53;;;;;;;8.05;2.80;;;29.70;99.90;;;;;;5066469;28;20086;-66
2023/08/14 11:19:20;;;;;;;6.05;2.50;;;28.70;99.90;;;;;;5065307;28;20075;-66
2023/08/14 11:21:46;;;;;;;5.72;2.90;;;28.40;1.00;;;;;;5060917;28;20604;-67
2023/08/14 11:24:13;;;;;;;8.15;2.92;;;28.80;1.00;;;;;;5060277;28;20024;-68
2023/08/14 11:26:39;;;;;;;6.18;2.80;;;29.10;14.20;;;;;;5071416;28;20058;-67
2023/08/14 11:29:04;;;;;;;6.78;2.90;;;29.10;1.00;;;;;;5076004;28;20032;-67
2023/08/14 11:31:30;;;;;;;9.00;3.13;;;28.50;1.00;;;;;;5072252;28;20025;-66
2023/08/14 11:33:56;;;;;;;11.82;3.05;;;28.40;99.90;;;;;;5072320;28;20064;-67
2023/08/14 11:36:21;;;;;;;8.15;3.00;;;28.60;99.90;;;;;;5071615;28;20413;-67
2023/08/14 11:38:47;;;;;;;9.50;3.10;;;28.40;74.30;;;;;;5071845;28;20032;-67
2023/08/14 11:41:13;;;;;;;6.55;2.92;;;28.50;51.30;;;;;;5072980;28;20033;-66
2023/08/14 11:43:38;;;;;;;5.20;2.63;;;28.70;95.00;;;;;;5072468;28;20028;-68
2023/08/14 11:46:05;;;;;;;10.65;3.33;;;28.80;99.90;;;;;;5078081;28;20029;-66
2023/08/14 11:48:32;;;;;;;8.43;2.97;;;28.60;99.90;;;;;;5072013;28;20085;-67
2023/08/14 11:50:59;;;;;;;8.05;3.08;;;28.20;78.30;;;;;;5059217;28;20036;-66
2023/08/14 11:53:25;;;;;;;8.65;3.17;;;28.20;99.90;;;;;;5071937;28;20032;-67
2023/08/14 11:55:51;;;;;;;6.43;3.08;;;28.00;99.90;;;;;;5073549;28;20066;-66
2023/08/14 11:58:17;;;;;;;9.50;3.42;;;27.90;99.90;;;;;;5060677;28;20488;-66
2023/08/14 12:00:48;;;;;;;8.48;3.00;;;28.10;99.90;;;;;;5066746;28;20029;-66
2023/08/14 12:03:16;;;;;;;7.60;3.35;;;27.90;99.90;;;;;;5075697;28;20513;-66
2023/08/14 12:05:44;;;;;;;8.80;3.50;;;27.80;99.90;;;;;;5070960;28;20497;-67
2023/08/14 12:08:11;;;;;;;6.22;3.15;;;27.90;1.00;;;;;;5074772;28;20036;-66
2023/08/14 12:10:39;;;;;;;11.02;3.53;;;28.40;8.30;;;;;;5079044;28;20450;-66
2023/08/14 12:13:05;;;;;;;7.57;2.80;;;29.20;99.90;;;;;;5075926;28;20079;-66
2023/08/14 12:15:31;;;;;;;6.55;2.80;;;28.40;1.00;;;;;;5075830;28;20044;-66
2023/08/14 12:17:57;;;;;;;5.80;3.20;;;28.60;99.90;;;;;;5074933;28;20033;-67
2023/08/14 12:20:23;;;;;;;6.55;3.13;;;28.60;54.80;;;;;;5065235;28;20059;-67
2023/08/14 12:22:49;;;;;;;8.07;3.25;;;28.40;99.90;;;;;;5071541;28;20036;-66
2023/08/14 12:25:18;;;;;;;13.07;3.40;;;28.00;99.90;;;;;;5070547;28;20086;-67
2023/08/14 12:27:44;;;;;;;5.68;2.95;;;27.90;99.90;;;;;;5071071;28;20381;-66
2023/08/14 12:30:11;;;;;;;6.50;2.75;;;27.90;99.90;;;;;;5065803;28;20036;-66
2023/08/14 12:32:44;;;;;;;6.43;3.08;;;28.30;99.90;;;;;;5075448;28;20029;-65
2023/08/14 12:35:10;;;;;;;8.38;3.45;;;28.10;1.00;;;;;;5066480;28;20037;-65
2023/08/14 12:37:36;;;;;;;7.05;3.25;;;28.40;1.00;;;;;;5068889;28;20085;-66
2023/08/14 12:40:08;;;;;;;10.77;3.55;;;28.70;1.00;;;;;;5065141;28;20029;-70
2023/08/14 12:42:34;;;;;;;4.75;2.60;;;28.50;1.00;;;;;;5068826;28;20028;-66
2023/08/14 12:44:59;;;;;;;6.80;2.92;;;28.20;1.00;;;;;;5077908;28;20032;-66